createdAt,value
2022-09-04T00:00:54.347Z,-40
2022-09-04T00:01:54.323Z,-40
2022-09-04T00:02:54.312Z,-40
2022-09-04T00:03:54.305Z,-40
2022-09-04T00:04:54.294Z,-40
2022-09-04T00:05:54.288Z,-40
2022-09-04T00:06:54.268Z,-40
2022-09-04T00:07:54.257Z,-40
2022-09-04T00:08:54.246Z,-40
2022-09-04T00:09:54.260Z,-40
2022-09-04T00:10:54.227Z,-40
2022-09-04T00:11:54.244Z,-40
2022-09-04T00:12:54.207Z,-40
2022-09-04T00:13:54.236Z,-40
2022-09-04T00:14:54.197Z,-40
2022-09-04T00:15:54.174Z,-40
2022-09-04T00:16:54.163Z,-40
2022-09-04T00:17:54.158Z,-40
2022-09-04T00:18:54.157Z,-40
2022-09-04T00:19:54.142Z,-40
2022-09-04T00:20:54.121Z,-40
2022-09-04T00:21:54.112Z,-40
2022-09-04T00:22:54.103Z,-40
2022-09-04T00:23:54.100Z,-40
2022-09-04T00:24:54.086Z,-40
2022-09-04T00:25:54.129Z,-40
2022-09-04T00:26:54.061Z,-40
2022-09-04T00:27:54.046Z,-40
2022-09-04T00:28:54.035Z,-40
2022-09-04T00:29:54.034Z,-40
2022-09-04T00:30:54.032Z,-40
2022-09-04T00:31:54.032Z,-40
2022-09-04T00:32:53.995Z,-40
2022-09-04T00:33:53.986Z,-40
2022-09-04T00:34:53.985Z,-40
2022-09-04T00:35:53.960Z,-40
2022-09-04T00:36:53.950Z,-40
2022-09-04T00:37:53.953Z,-40
2022-09-04T00:38:53.937Z,-40
2022-09-04T00:39:53.923Z,-40
2022-09-04T00:40:53.907Z,-40
2022-09-04T00:41:53.928Z,-40
2022-09-04T00:42:53.905Z,-40
2022-09-04T00:43:53.892Z,-40
2022-09-04T00:44:53.877Z,-40
2022-09-04T00:45:53.857Z,-40
2022-09-04T00:46:53.850Z,-40
2022-09-04T00:47:53.844Z,-40
2022-09-04T00:48:53.827Z,-40
2022-09-04T00:49:53.814Z,-40
2022-09-04T00:50:53.817Z,-40
2022-09-04T00:51:53.795Z,-40
2022-09-04T00:52:53.792Z,-40
2022-09-04T00:53:53.789Z,-40
2022-09-04T00:54:53.777Z,-40
2022-09-04T00:55:53.758Z,-40
2022-09-04T00:56:53.754Z,-40
2022-09-04T00:57:53.729Z,-40
2022-09-04T00:58:53.721Z,-40
2022-09-04T00:59:53.718Z,-40
2022-09-04T01:00:53.703Z,-40
2022-09-04T01:01:53.698Z,-40
2022-09-04T01:02:53.688Z,-40
2022-09-04T01:03:53.678Z,-40
2022-09-04T01:04:53.674Z,-40
2022-09-04T01:05:53.655Z,-40
2022-09-04T01:06:53.639Z,-40
2022-09-04T01:07:53.625Z,-40
2022-09-04T01:08:53.631Z,-40
2022-09-04T01:09:53.604Z,-40
2022-09-04T01:10:53.594Z,-40
2022-09-04T01:11:53.596Z,-40
2022-09-04T01:12:53.567Z,-40
2022-09-04T01:13:53.572Z,-40
2022-09-04T01:14:53.551Z,-40
2022-09-04T01:15:53.566Z,-40
2022-09-04T01:16:53.529Z,-40
2022-09-04T01:17:53.527Z,-40
2022-09-04T01:18:53.503Z,-40
2022-09-04T01:19:53.497Z,-40
2022-09-04T01:20:53.486Z,-40
2022-09-04T01:21:53.487Z,-40
2022-09-04T01:22:53.470Z,-40
2022-09-04T01:23:53.455Z,-40
2022-09-04T01:24:53.449Z,-40
2022-09-04T01:25:53.439Z,-40
2022-09-04T01:26:53.430Z,-40
2022-09-04T01:27:53.469Z,-40
2022-09-04T01:28:53.409Z,-40
2022-09-04T01:29:53.391Z,-40
2022-09-04T01:30:53.378Z,-40
2022-09-04T01:31:53.382Z,-40
2022-09-04T01:32:53.402Z,-40
2022-09-04T01:33:53.464Z,-40
2022-09-04T01:34:53.359Z,-40
2022-09-04T01:35:53.336Z,-40
2022-09-04T01:36:53.325Z,-40
2022-09-04T01:37:53.312Z,-40
2022-09-04T01:38:53.297Z,-40
2022-09-04T01:39:53.283Z,-40
2022-09-04T01:40:53.278Z,-40
2022-09-04T01:41:53.259Z,-40
2022-09-04T01:42:53.336Z,-40
2022-09-04T01:43:54.289Z,-40
2022-09-04T01:44:53.230Z,-40
2022-09-04T01:45:53.218Z,-40
2022-09-04T01:46:53.274Z,-40
2022-09-04T01:47:53.194Z,-40
2022-09-04T01:48:53.186Z,-40
2022-09-04T01:49:53.182Z,-40
2022-09-04T01:50:53.177Z,-40
2022-09-04T01:51:53.215Z,-40
2022-09-04T01:52:53.141Z,-40
2022-09-04T01:53:53.149Z,-40
2022-09-04T01:54:53.125Z,-40
2022-09-04T01:55:53.108Z,-40
2022-09-04T01:56:53.110Z,-40
2022-09-04T01:57:53.160Z,-40
2022-09-04T01:58:53.116Z,-40
2022-09-04T01:59:53.062Z,-40
2022-09-04T02:00:53.054Z,-40
2022-09-04T02:01:53.046Z,-40
2022-09-04T02:02:53.045Z,-40
2022-09-04T02:03:53.024Z,-40
2022-09-04T02:04:53.015Z,-40
2022-09-04T02:05:53.006Z,-40
2022-09-04T02:06:53.005Z,-40
2022-09-04T02:07:52.977Z,-40
2022-09-04T02:08:52.972Z,-40
2022-09-04T02:09:52.961Z,-40
2022-09-04T02:10:52.948Z,-40
2022-09-04T02:11:52.940Z,-40
2022-09-04T02:12:52.932Z,-40
2022-09-04T02:13:52.934Z,-40
2022-09-04T02:14:52.908Z,-40
2022-09-04T02:15:52.906Z,-40
2022-09-04T02:16:52.916Z,-40
2022-09-04T02:17:52.880Z,-40
2022-09-04T02:18:52.886Z,-40
2022-09-04T02:19:52.875Z,-40
2022-09-04T02:20:52.842Z,-40
2022-09-04T02:21:52.844Z,-40
2022-09-04T02:22:52.822Z,-40
2022-09-04T02:23:52.811Z,-40
2022-09-04T02:24:52.808Z,-40
2022-09-04T02:25:52.792Z,-40
2022-09-04T02:26:52.774Z,-40
2022-09-04T02:27:52.759Z,-40
2022-09-04T02:28:52.748Z,-40
2022-09-04T02:29:52.745Z,-40
2022-09-04T02:30:52.728Z,-40
2022-09-04T02:31:52.734Z,-40
2022-09-04T02:32:52.714Z,-40
2022-09-04T02:33:52.704Z,-40
2022-09-04T02:34:52.689Z,-40
2022-09-04T02:35:52.682Z,-40
2022-09-04T02:36:52.666Z,-40
2022-09-04T02:37:52.673Z,-40
2022-09-04T02:38:52.639Z,-40
2022-09-04T02:39:52.636Z,-40
2022-09-04T02:40:52.630Z,-40
2022-09-04T02:41:52.614Z,-40
2022-09-04T02:42:52.607Z,-40
2022-09-04T02:43:52.610Z,-40
2022-09-04T02:44:52.581Z,-40
2022-09-04T02:45:52.580Z,-40
2022-09-04T02:46:52.551Z,-40
2022-09-04T02:47:52.567Z,-40
2022-09-04T02:48:52.533Z,-40
2022-09-04T02:49:52.528Z,-40
2022-09-04T02:50:52.521Z,-40
2022-09-04T02:51:52.501Z,-40
2022-09-04T02:52:52.530Z,-40
2022-09-04T02:53:52.495Z,-40
2022-09-04T02:54:52.466Z,-40
2022-09-04T02:55:52.485Z,-40
2022-09-04T02:56:52.457Z,-40
2022-09-04T02:57:52.449Z,-40
2022-09-04T02:58:52.429Z,-40
2022-09-04T02:59:52.415Z,-40
2022-09-04T03:00:52.417Z,-40
2022-09-04T03:01:52.427Z,-40
2022-09-04T03:02:52.380Z,-40
2022-09-04T03:03:52.377Z,-40
2022-09-04T03:04:52.379Z,-40
2022-09-04T03:05:52.376Z,-40
2022-09-04T03:06:52.336Z,-40
2022-09-04T03:07:52.324Z,-40
2022-09-04T03:08:52.319Z,-40
2022-09-04T03:09:52.309Z,-40
2022-09-04T03:10:52.298Z,-40
2022-09-04T03:11:52.313Z,-40
2022-09-04T03:12:52.293Z,-40
2022-09-04T03:13:52.260Z,-40
2022-09-04T03:14:52.247Z,-40
2022-09-04T03:15:52.249Z,-40
2022-09-04T03:16:52.305Z,-40
2022-09-04T03:17:52.214Z,-40
2022-09-04T03:18:52.209Z,-40
2022-09-04T03:19:52.197Z,-40
2022-09-04T03:20:52.210Z,-40
2022-09-04T03:21:52.177Z,-40
2022-09-04T03:22:52.172Z,-40
2022-09-04T03:23:52.154Z,-40
2022-09-04T03:24:52.141Z,-40
2022-09-04T03:25:52.131Z,-40
2022-09-04T03:26:52.129Z,-40
2022-09-04T03:27:52.127Z,-40
2022-09-04T03:28:52.106Z,-40
2022-09-04T03:29:52.091Z,-40
2022-09-04T03:30:52.095Z,-40
2022-09-04T03:31:52.088Z,-40
2022-09-04T03:32:52.055Z,-40
2022-09-04T03:33:52.060Z,-40
2022-09-04T03:34:52.033Z,-40
2022-09-04T03:35:52.052Z,-40
2022-09-04T03:36:52.009Z,-40
2022-09-04T03:37:52.007Z,-40
2022-09-04T03:38:51.992Z,-40
2022-09-04T03:39:51.984Z,-40
2022-09-04T03:40:51.990Z,-40
2022-09-04T03:41:51.962Z,-40
2022-09-04T03:42:51.942Z,-40
2022-09-04T03:43:51.933Z,-40
2022-09-04T03:44:51.941Z,-40
2022-09-04T03:45:51.917Z,-40
2022-09-04T03:46:51.964Z,-40
2022-09-04T03:47:51.890Z,-40
2022-09-04T03:48:51.895Z,-40
2022-09-04T03:49:51.898Z,-40
2022-09-04T03:50:51.858Z,-40
2022-09-04T03:51:51.854Z,-40
2022-09-04T03:52:51.858Z,-40
2022-09-04T03:53:51.822Z,-40
2022-09-04T03:54:51.823Z,-40
2022-09-04T03:55:51.811Z,-40
2022-09-04T03:56:51.792Z,-40
2022-09-04T03:57:51.782Z,-40
2022-09-04T03:58:51.772Z,-40
2022-09-04T03:59:51.757Z,-40
2022-09-04T04:00:51.758Z,-40
2022-09-04T04:01:51.733Z,-40
2022-09-04T04:02:51.825Z,-40
2022-09-04T04:03:51.756Z,-40
2022-09-04T04:04:51.737Z,-40
2022-09-04T04:05:51.699Z,-40
2022-09-04T04:06:51.678Z,-40
2022-09-04T04:07:51.670Z,-40
2022-09-04T04:08:51.676Z,-40
2022-09-04T04:09:51.658Z,-40
2022-09-04T04:10:51.637Z,-40
2022-09-04T04:11:51.629Z,-40
2022-09-04T04:12:51.623Z,-40
2022-09-04T04:13:51.613Z,-40
2022-09-04T04:14:51.618Z,-40
2022-09-04T04:15:51.623Z,-40
2022-09-04T04:16:51.575Z,-40
2022-09-04T04:17:51.578Z,-40
2022-09-04T04:18:51.550Z,-40
2022-09-04T04:19:51.584Z,-40
2022-09-04T04:20:51.527Z,-40
2022-09-04T04:21:51.524Z,-40
2022-09-04T04:22:51.505Z,-40
2022-09-04T04:23:51.510Z,-40
2022-09-04T04:24:51.503Z,-40
2022-09-04T04:25:51.505Z,-40
2022-09-04T04:26:51.485Z,-40
2022-09-04T04:27:51.451Z,-40
2022-09-04T04:28:51.439Z,-40
2022-09-04T04:29:51.428Z,-40
2022-09-04T04:30:51.415Z,-40
2022-09-04T04:31:51.415Z,-40
2022-09-04T04:32:51.432Z,-40
2022-09-04T04:33:51.391Z,-40
2022-09-04T04:34:51.408Z,-40
2022-09-04T04:35:51.373Z,-40
2022-09-04T04:36:51.356Z,-40
2022-09-04T04:37:51.350Z,-40
2022-09-04T04:38:51.389Z,-40
2022-09-04T04:39:51.327Z,-40
2022-09-04T04:40:51.313Z,-40
2022-09-04T04:41:51.314Z,-40
2022-09-04T04:42:51.295Z,-40
2022-09-04T04:43:51.287Z,-40
2022-09-04T04:44:51.280Z,-40
2022-09-04T04:45:51.268Z,-40
2022-09-04T04:46:51.266Z,-40
2022-09-04T04:47:51.268Z,-40
2022-09-04T04:48:51.234Z,-40
2022-09-04T04:49:51.221Z,-40
2022-09-04T04:50:51.235Z,-40
2022-09-04T04:51:51.202Z,-40
2022-09-04T04:52:51.194Z,-40
2022-09-04T04:53:51.214Z,-40
2022-09-04T04:54:51.173Z,-40
2022-09-04T04:55:51.186Z,-40
2022-09-04T04:56:51.158Z,-40
2022-09-04T04:57:51.145Z,-40
2022-09-04T04:58:51.130Z,-40
2022-09-04T04:59:51.122Z,-40
2022-09-04T05:00:51.117Z,-40
2022-09-04T05:01:51.101Z,-40
2022-09-04T05:02:51.104Z,-40
2022-09-04T05:03:51.080Z,-40
2022-09-04T05:04:51.073Z,-40
2022-09-04T05:05:51.059Z,-40
2022-09-04T05:06:51.047Z,-40
2022-09-04T05:07:51.038Z,-40
2022-09-04T05:08:51.044Z,-40
2022-09-04T05:09:51.032Z,-40
2022-09-04T05:10:51.008Z,-40
2022-09-04T05:11:50.992Z,-40
2022-09-04T05:12:51.008Z,-40
2022-09-04T05:13:50.983Z,-40
2022-09-04T05:14:50.976Z,-40
2022-09-04T05:15:50.954Z,-40
2022-09-04T05:16:50.946Z,-40
2022-09-04T05:17:50.946Z,-40
2022-09-04T05:18:50.931Z,-40
2022-09-04T05:19:50.914Z,-40
2022-09-04T05:20:50.906Z,-40
2022-09-04T05:21:50.888Z,-40
2022-09-04T05:22:50.886Z,-40
2022-09-04T05:23:50.881Z,-40
2022-09-04T05:24:50.855Z,-40
2022-09-04T05:25:50.852Z,-40
2022-09-04T05:26:50.863Z,-40
2022-09-04T05:27:50.830Z,-40
2022-09-04T05:28:50.827Z,-40
2022-09-04T05:29:50.816Z,-40
2022-09-04T05:30:50.803Z,-40
2022-09-04T05:31:50.790Z,-40
2022-09-04T05:32:50.796Z,-40
2022-09-04T05:33:50.767Z,-40
2022-09-04T05:34:50.754Z,-40
2022-09-04T05:35:50.748Z,-40
2022-09-04T05:36:50.741Z,-40
2022-09-04T05:37:50.737Z,-40
2022-09-04T05:38:50.720Z,-40
2022-09-04T05:39:50.716Z,-40
2022-09-04T05:40:50.703Z,-40
2022-09-04T05:41:50.686Z,-40
2022-09-04T05:42:50.683Z,-40
2022-09-04T05:43:50.662Z,-40
2022-09-04T05:44:50.673Z,-40
2022-09-04T05:45:50.649Z,-40
2022-09-04T05:46:50.645Z,-40
2022-09-04T05:47:50.656Z,-40
2022-09-04T05:48:50.605Z,-40
2022-09-04T05:49:50.599Z,-40
2022-09-04T05:50:50.604Z,-40
2022-09-04T05:51:50.613Z,-40
2022-09-04T05:52:50.582Z,-40
2022-09-04T05:53:50.559Z,-40
2022-09-04T05:54:50.568Z,-40
2022-09-04T05:55:50.544Z,-40
2022-09-04T05:56:50.543Z,-40
2022-09-04T05:57:50.522Z,-40
2022-09-04T05:58:50.516Z,-40
2022-09-04T05:59:50.502Z,-40
2022-09-04T06:00:50.478Z,-40
2022-09-04T06:01:50.480Z,-40
2022-09-04T06:02:50.522Z,-40
2022-09-04T06:03:50.446Z,-40
2022-09-04T06:04:50.442Z,-40
2022-09-04T06:05:50.436Z,-40
2022-09-04T06:06:50.414Z,-40
2022-09-04T06:07:50.416Z,-40
2022-09-04T06:08:50.404Z,-40
2022-09-04T06:09:50.414Z,-40
2022-09-04T06:10:50.371Z,-40
2022-09-04T06:11:50.380Z,-40
2022-09-04T06:12:50.379Z,-40
2022-09-04T06:13:50.338Z,-40
2022-09-04T06:14:50.344Z,-40
2022-09-04T06:15:50.340Z,-40
2022-09-04T06:16:50.314Z,-40
2022-09-04T06:17:50.297Z,-40
2022-09-04T06:18:50.303Z,-40
2022-09-04T06:19:50.272Z,-40
2022-09-04T06:20:50.267Z,-40
2022-09-04T06:21:50.250Z,-40
2022-09-04T06:22:50.239Z,-40
2022-09-04T06:23:50.236Z,-40
2022-09-04T06:24:50.231Z,-40
2022-09-04T06:25:50.214Z,-40
2022-09-04T06:26:50.266Z,-40
2022-09-04T06:27:50.200Z,-40
2022-09-04T06:28:50.176Z,-40
2022-09-04T06:29:50.170Z,-40
2022-09-04T06:30:50.187Z,-40
2022-09-04T06:31:50.174Z,-40
2022-09-04T06:32:50.130Z,-40
2022-09-04T06:33:50.126Z,-40
2022-09-04T06:34:50.127Z,-40
2022-09-04T06:35:50.107Z,-40
2022-09-04T06:36:50.091Z,-40
2022-09-04T06:37:50.106Z,-40
2022-09-04T06:38:50.114Z,-40
2022-09-04T06:39:50.062Z,-40
2022-09-04T06:40:50.048Z,-40
2022-09-04T06:41:50.047Z,-40
2022-09-04T06:42:50.046Z,-40
2022-09-04T06:43:50.022Z,-40
2022-09-04T06:44:50.015Z,-40
2022-09-04T06:45:50.079Z,-40
2022-09-04T06:46:50.044Z,-40
2022-09-04T06:47:49.978Z,-40
2022-09-04T06:48:49.984Z,-40
2022-09-04T06:49:49.961Z,-40
2022-09-04T06:50:49.980Z,-40
2022-09-04T06:51:49.938Z,-40
2022-09-04T06:52:49.923Z,-40
2022-09-04T06:54:45.344Z,21.48
2022-09-04T06:55:45.330Z,21.64
2022-09-04T06:56:45.307Z,21.53
2022-09-04T06:57:45.302Z,21.66
2022-09-04T06:58:45.334Z,21.69
2022-09-04T06:59:45.286Z,21.91
2022-09-04T07:00:45.347Z,21.72
2022-09-04T07:01:45.311Z,21.95
2022-09-04T07:02:45.277Z,22.39
2022-09-04T07:03:45.236Z,22.52
2022-09-04T07:04:45.226Z,22.65
2022-09-04T07:05:45.266Z,22.46
2022-09-04T07:06:45.202Z,22.53
2022-09-04T07:07:45.220Z,22.86
2022-09-04T07:08:45.210Z,23.08
2022-09-04T07:09:45.220Z,23.42
2022-09-04T07:10:45.192Z,23.53
2022-09-04T07:11:45.220Z,23.55
2022-09-04T07:12:45.179Z,23.67
2022-09-04T07:13:45.138Z,23.95
2022-09-04T07:14:45.122Z,23.79
2022-09-04T07:15:45.139Z,24.1
2022-09-04T07:16:45.128Z,24.52
2022-09-04T07:17:45.120Z,24.76
2022-09-04T07:18:45.088Z,24.69
2022-09-04T07:19:45.078Z,24.85
2022-09-04T07:20:45.051Z,24.76
2022-09-04T07:21:45.076Z,24.56
2022-09-04T07:22:45.153Z,24.35
2022-09-04T07:23:45.055Z,24.35
2022-09-04T07:24:45.020Z,24.61
2022-09-04T07:25:45.105Z,25.32
2022-09-04T07:26:45.041Z,25.57
2022-09-04T07:27:45.004Z,25.87
2022-09-04T07:28:45.008Z,25.82
2022-09-04T07:29:44.966Z,26.25
2022-09-04T07:30:44.964Z,26.4
2022-09-04T07:31:44.951Z,26.72
2022-09-04T07:32:44.945Z,26.92
2022-09-04T07:33:44.928Z,27.38
2022-09-04T07:34:44.991Z,27.57
2022-09-04T07:35:44.897Z,26.96
2022-09-04T07:36:44.940Z,26.76
2022-09-04T07:37:44.916Z,26.91
2022-09-04T07:38:44.891Z,26.94
2022-09-04T07:39:44.881Z,26.8
2022-09-04T07:40:44.851Z,26.94
2022-09-04T07:41:44.878Z,27.19
2022-09-04T07:42:44.843Z,27.26
2022-09-04T07:43:44.832Z,27.09
2022-09-04T07:44:44.832Z,26.98
2022-09-04T07:45:44.808Z,27.7
2022-09-04T07:46:44.813Z,27.96
2022-09-04T07:47:44.864Z,27.84
2022-09-04T07:48:44.763Z,28.56
2022-09-04T07:49:44.761Z,28.35
2022-09-04T07:50:44.746Z,28.56
2022-09-04T07:51:44.770Z,28.69
2022-09-04T07:52:44.717Z,28.7
2022-09-04T07:53:44.709Z,28.7
2022-09-04T07:54:44.717Z,28.47
2022-09-04T07:55:44.693Z,28.4
2022-09-04T07:56:44.676Z,28.69
2022-09-04T07:57:53.512Z,29.01
2022-09-04T07:58:44.653Z,28.93
2022-09-04T07:59:44.639Z,29.07
2022-09-04T08:00:44.625Z,29.16
2022-09-04T08:01:44.618Z,29.68
2022-09-04T08:02:44.632Z,30.38
2022-09-04T08:03:44.620Z,30.69
2022-09-04T08:04:44.604Z,30.21
2022-09-04T08:05:44.588Z,30.75
2022-09-04T08:06:44.642Z,31.23
2022-09-04T08:07:44.704Z,31.08
2022-09-04T08:08:44.555Z,30.84
2022-09-04T08:13:06.823Z,30.74
2022-09-04T08:14:06.815Z,30.76
2022-09-04T08:15:06.832Z,31.23
2022-09-04T08:16:06.826Z,31.65
2022-09-04T08:17:06.781Z,31.24
2022-09-04T08:18:06.773Z,31.23
2022-09-04T08:19:06.790Z,31.58
2022-09-04T08:20:06.755Z,31.11
2022-09-04T08:21:06.769Z,31.23
2022-09-04T08:22:06.746Z,31.09
2022-09-04T08:23:06.720Z,31.05
2022-09-04T08:24:06.709Z,30.78
2022-09-04T08:25:06.700Z,31.05
2022-09-04T08:26:06.685Z,31.65
2022-09-04T08:27:06.688Z,31.57
2022-09-04T08:28:06.677Z,31.27
2022-09-04T08:29:06.690Z,31.62
2022-09-04T08:30:06.642Z,32.03
2022-09-04T08:31:06.639Z,32.51
2022-09-04T08:32:06.623Z,32.42
2022-09-04T08:33:06.626Z,32.77
2022-09-04T08:34:06.630Z,33.36
2022-09-04T08:35:06.598Z,33.57
2022-09-04T08:36:06.586Z,32.99
2022-09-04T08:37:06.587Z,32.1
2022-09-04T08:38:06.561Z,32.49
2022-09-04T08:39:06.554Z,32.55
2022-09-04T08:40:06.545Z,32.64
2022-09-04T08:41:06.529Z,33.07
2022-09-04T08:42:06.525Z,33.11
2022-09-04T08:43:06.537Z,32.69
2022-09-04T08:44:06.502Z,32.33
2022-09-04T08:45:06.507Z,31.23
2022-09-04T08:46:06.517Z,31.01
2022-09-04T08:47:06.465Z,31.23
2022-09-04T08:48:06.649Z,31.28
2022-09-04T08:49:06.469Z,30.93
2022-09-04T08:50:06.470Z,30.86
2022-09-04T08:51:06.444Z,30.91
2022-09-04T08:52:06.413Z,30.98
2022-09-04T08:53:06.430Z,31.13
2022-09-04T08:54:06.411Z,32.15
2022-09-04T08:55:06.407Z,32.35
2022-09-04T08:56:06.390Z,32.89
2022-09-04T08:57:06.361Z,32.84
2022-09-04T08:58:06.401Z,32.4
2022-09-04T08:59:06.336Z,32.07
2022-09-04T09:00:06.363Z,32.39
2022-09-04T09:01:06.322Z,32.11
2022-09-04T09:02:06.305Z,32.54
2022-09-04T09:03:06.295Z,32.02
2022-09-04T09:04:06.288Z,32
2022-09-04T09:05:06.299Z,32.52
2022-09-04T09:06:06.286Z,32.93
2022-09-04T09:07:06.328Z,34.05
2022-09-04T09:08:06.348Z,35.2
2022-09-04T09:09:06.277Z,35.82
2022-09-04T09:10:06.226Z,35.84
2022-09-04T09:11:06.218Z,34.5
2022-09-04T09:12:06.239Z,34.86
2022-09-04T09:13:06.202Z,34.79
2022-09-04T09:14:06.191Z,35.01
2022-09-04T09:15:06.183Z,35.25
2022-09-04T09:16:06.169Z,35.07
2022-09-04T09:17:06.153Z,34.44
2022-09-04T09:18:07.142Z,34.6
2022-09-04T09:19:06.131Z,34.63
2022-09-04T09:20:06.128Z,33.51
2022-09-04T09:21:06.107Z,-40
2022-09-04T09:22:06.095Z,-40
2022-09-04T09:23:06.091Z,-40
2022-09-04T09:24:06.084Z,-40
2022-09-04T09:25:06.081Z,-40
2022-09-04T09:26:06.070Z,-40
2022-09-04T09:27:06.047Z,-40
2022-09-04T09:28:06.050Z,-40
2022-09-04T09:29:06.054Z,-40
2022-09-04T09:30:06.016Z,-40
2022-09-04T09:31:06.000Z,-40
2022-09-04T09:32:06.007Z,-40
2022-09-04T09:33:05.981Z,-40
2022-09-04T09:34:05.975Z,-40
2022-09-04T09:35:05.961Z,-40
2022-09-04T09:36:05.956Z,-40
2022-09-04T09:37:05.938Z,-40
2022-09-04T09:38:05.930Z,-40
2022-09-04T09:39:05.917Z,-40
2022-09-04T09:40:05.908Z,-40
2022-09-04T09:41:05.914Z,-40
2022-09-04T09:42:05.887Z,-40
2022-09-04T09:43:05.874Z,-40
2022-09-04T09:44:05.870Z,-40
2022-09-04T09:45:05.856Z,-40
2022-09-04T09:46:05.860Z,-40
2022-09-04T09:47:05.830Z,-40
2022-09-04T09:48:05.822Z,-40
2022-09-04T09:49:05.840Z,-40
2022-09-04T09:50:05.827Z,-40
2022-09-04T09:51:05.788Z,-40
2022-09-04T09:52:05.776Z,-40
2022-09-04T09:53:05.773Z,-40
2022-09-04T09:54:05.756Z,-40
2022-09-04T09:55:05.743Z,-40
2022-09-04T09:56:05.744Z,-40
2022-09-04T09:57:05.735Z,-40
2022-09-04T09:58:05.718Z,-40
2022-09-04T09:59:05.720Z,-40
2022-09-04T10:00:05.698Z,-40
2022-09-04T10:01:05.681Z,-40
2022-09-04T10:02:05.682Z,-40
2022-09-04T10:03:05.698Z,-40
2022-09-04T10:04:05.673Z,-40
2022-09-04T10:05:05.635Z,-40
2022-09-04T10:06:05.637Z,-40
2022-09-04T10:07:05.618Z,-40
2022-09-04T10:08:05.635Z,-40
2022-09-04T10:09:05.612Z,-40
2022-09-04T10:10:05.603Z,-40
2022-09-04T10:11:13.130Z,-40
2022-09-04T10:12:05.574Z,-40
2022-09-04T10:13:14.138Z,-40
2022-09-04T10:14:05.544Z,-40
2022-09-04T10:15:05.529Z,-40
2022-09-04T10:16:05.521Z,-40
2022-09-04T10:17:05.525Z,-40
2022-09-04T10:18:05.500Z,-40
2022-09-04T10:19:05.489Z,-40
2022-09-04T10:20:05.499Z,-40
2022-09-04T10:21:05.470Z,-40
2022-09-04T10:22:05.512Z,-40
2022-09-04T10:23:05.455Z,-40
2022-09-04T10:24:05.448Z,-40
2022-09-04T10:25:05.431Z,-40
2022-09-04T10:26:05.439Z,-40
2022-09-04T10:27:05.478Z,-40
2022-09-04T10:28:05.393Z,-40
2022-09-04T10:29:05.398Z,-40
2022-09-04T10:30:05.393Z,-40
2022-09-04T10:31:05.384Z,-40
2022-09-04T10:32:05.356Z,-40
2022-09-04T10:33:05.344Z,-40
2022-09-04T10:34:05.335Z,-40
2022-09-04T10:35:05.333Z,-40
2022-09-04T10:36:05.326Z,-40
2022-09-04T10:37:05.307Z,-40
2022-09-04T10:38:05.292Z,-40
2022-09-04T10:39:05.334Z,-40
2022-09-04T10:40:05.283Z,-40
2022-09-04T10:41:05.264Z,-40
2022-09-04T10:42:05.267Z,-40
2022-09-04T10:43:05.258Z,-40
2022-09-04T10:44:05.240Z,-40
2022-09-04T10:45:05.233Z,-40
2022-09-04T10:46:05.225Z,-40
2022-09-04T10:47:05.208Z,-40
2022-09-04T10:48:05.207Z,-40
2022-09-04T10:49:05.183Z,-40
2022-09-04T10:50:05.174Z,-40
2022-09-04T10:51:05.166Z,-40
2022-09-04T10:52:05.159Z,-40
2022-09-04T10:53:05.144Z,-40
2022-09-04T10:54:05.139Z,-40
2022-09-04T10:55:05.138Z,-40
2022-09-04T10:56:05.140Z,-40
2022-09-04T10:57:05.131Z,-40
2022-09-04T10:58:05.100Z,-40
2022-09-04T10:59:05.104Z,-40
2022-09-04T11:00:05.096Z,-40
2022-09-04T11:01:05.079Z,-40
2022-09-04T11:02:05.063Z,-40
2022-09-04T11:03:05.051Z,-40
2022-09-04T11:04:05.041Z,-40
2022-09-04T11:05:05.029Z,-40
2022-09-04T11:06:05.018Z,-40
2022-09-04T11:07:05.016Z,-40
2022-09-04T11:08:05.003Z,-40
2022-09-04T11:09:04.991Z,-40
2022-09-04T11:10:04.987Z,-40
2022-09-04T11:11:04.984Z,-40
2022-09-04T11:12:04.961Z,-40
2022-09-04T11:13:04.958Z,-40
2022-09-04T11:14:04.942Z,-40
2022-09-04T11:15:04.983Z,-40
2022-09-04T11:16:04.942Z,-40
2022-09-04T11:17:04.915Z,-40
2022-09-04T11:18:04.896Z,-40
2022-09-04T11:19:04.898Z,-40
2022-09-04T11:20:04.884Z,-40
2022-09-04T11:21:04.869Z,-40
2022-09-04T11:22:04.878Z,-40
2022-09-04T11:23:04.860Z,-40
2022-09-04T11:24:04.838Z,-40
2022-09-04T11:25:04.840Z,-40
2022-09-04T11:26:04.841Z,-40
2022-09-04T11:27:04.811Z,-40
2022-09-04T11:28:04.807Z,-40
2022-09-04T11:29:04.871Z,-40
2022-09-04T11:30:04.844Z,-40
2022-09-04T11:31:04.779Z,-40
2022-09-04T11:32:04.783Z,-40
2022-09-04T11:33:04.760Z,-40
2022-09-04T11:34:04.750Z,-40
2022-09-04T11:35:04.748Z,-40
2022-09-04T11:36:04.726Z,-40
2022-09-04T11:37:04.727Z,-40
2022-09-04T11:38:04.711Z,-40
2022-09-04T11:39:04.702Z,-40
2022-09-04T11:40:04.696Z,-40
2022-09-04T11:41:04.688Z,-40
2022-09-04T11:42:04.667Z,-40
2022-09-04T11:43:04.671Z,-40
2022-09-04T11:44:04.654Z,-40
2022-09-04T11:45:04.653Z,-40
2022-09-04T11:46:04.649Z,-40
2022-09-04T11:47:04.755Z,-40
2022-09-04T11:48:04.613Z,-40
2022-09-04T11:49:04.606Z,-40
2022-09-04T11:50:04.625Z,-40
2022-09-04T11:51:05.498Z,-40
2022-09-04T11:52:04.582Z,-40
2022-09-04T11:53:04.579Z,-40
2022-09-04T11:54:04.564Z,-40
2022-09-04T11:55:04.574Z,-40
2022-09-04T11:56:04.550Z,-40
2022-09-04T11:57:04.531Z,-40
2022-09-04T11:58:04.534Z,-40
2022-09-04T11:59:04.509Z,-40
2022-09-04T12:00:04.497Z,-40
2022-09-04T12:01:04.494Z,-40
2022-09-04T12:02:04.487Z,-40
2022-09-04T12:03:04.477Z,-40
2022-09-04T12:04:04.472Z,-40
2022-09-04T12:05:04.456Z,-40
2022-09-04T12:06:04.445Z,-40
2022-09-04T12:07:04.442Z,-40
2022-09-04T12:08:04.445Z,-40
2022-09-04T12:09:04.422Z,-40
2022-09-04T12:10:04.416Z,-40
2022-09-04T12:11:04.403Z,-40
2022-09-04T12:12:04.390Z,-40
2022-09-04T12:13:04.391Z,-40
2022-09-04T12:14:04.378Z,-40
2022-09-04T12:15:04.357Z,-40
2022-09-04T12:16:04.364Z,-40
2022-09-04T12:17:04.342Z,-40
2022-09-04T12:18:04.371Z,-40
2022-09-04T12:19:04.319Z,-40
2022-09-04T12:20:04.318Z,-40
2022-09-04T12:21:04.297Z,-40
2022-09-04T12:22:04.295Z,-40
2022-09-04T12:23:04.417Z,-40
2022-09-04T12:24:04.275Z,-40
2022-09-04T12:25:04.262Z,-40
2022-09-04T12:26:04.259Z,-40
2022-09-04T12:27:04.250Z,-40
2022-09-04T12:28:04.232Z,-40
2022-09-04T12:29:04.232Z,-40
2022-09-04T12:30:04.241Z,-40
2022-09-04T12:31:04.208Z,-40
2022-09-04T12:32:04.207Z,-40
2022-09-04T12:33:04.202Z,-40
2022-09-04T12:34:04.182Z,-40
2022-09-04T12:35:04.180Z,-40
2022-09-04T12:36:04.159Z,-40
2022-09-04T12:37:04.150Z,-40
2022-09-04T12:38:04.155Z,-40
2022-09-04T12:39:04.142Z,-40
2022-09-04T12:40:04.293Z,-40
2022-09-04T12:42:36.013Z,36.14
2022-09-04T12:44:54.414Z,36.65
2022-09-04T12:45:54.347Z,36.14
2022-09-04T12:46:55.304Z,36.26
2022-09-04T12:47:54.287Z,35.95
2022-09-04T12:48:54.289Z,35.23
2022-09-04T12:49:54.266Z,34.76
2022-09-04T12:50:54.260Z,34.51
2022-09-04T12:51:54.255Z,34.51
2022-09-04T12:52:54.248Z,35.82
2022-09-04T12:53:54.231Z,36.76
2022-09-04T12:54:54.234Z,36.07
2022-09-04T12:55:54.219Z,36.3
2022-09-04T12:56:54.210Z,36.52
2022-09-04T12:57:54.193Z,36.79
2022-09-04T12:58:54.186Z,37.54
2022-09-04T12:59:54.175Z,38.58
2022-09-04T13:00:54.169Z,39.44
2022-09-04T13:01:54.166Z,40.05
2022-09-04T13:02:54.160Z,40.4
2022-09-04T13:03:54.147Z,40.61
2022-09-04T13:04:54.128Z,39.27
2022-09-04T13:05:54.125Z,38.76
2022-09-04T13:06:54.113Z,38.82
2022-09-04T13:07:54.106Z,39.05
2022-09-04T13:08:54.093Z,39.51
2022-09-04T13:09:54.085Z,38.9
2022-09-04T13:10:54.087Z,37.9
2022-09-04T13:11:54.066Z,36.9
2022-09-04T13:12:54.056Z,36.54
2022-09-04T13:13:54.059Z,36.49
2022-09-04T13:14:54.035Z,36.15
2022-09-04T13:15:54.034Z,35.51
2022-09-04T13:16:54.015Z,35.37
2022-09-04T13:17:54.009Z,34.61
2022-09-04T13:18:53.996Z,-40
2022-09-04T13:19:53.987Z,-40
2022-09-04T13:20:54.006Z,-40
2022-09-04T13:21:53.965Z,-40
2022-09-04T13:22:53.951Z,-40
2022-09-04T13:23:53.946Z,-40
2022-09-04T13:24:53.950Z,-40
2022-09-04T13:25:53.940Z,-40
2022-09-04T13:26:53.913Z,-40
2022-09-04T13:27:53.909Z,-40
2022-09-04T13:28:53.900Z,-40
2022-09-04T13:29:53.894Z,-40
2022-09-04T13:30:53.884Z,-40
2022-09-04T13:31:53.889Z,-40
2022-09-04T13:32:53.881Z,-40
2022-09-04T13:33:53.841Z,-40
2022-09-04T13:34:53.840Z,-40
2022-09-04T13:35:53.827Z,-40
2022-09-04T13:36:53.823Z,-40
2022-09-04T13:37:53.805Z,-40
2022-09-04T13:38:53.798Z,-40
2022-09-04T13:39:53.780Z,-40
2022-09-04T13:40:53.771Z,-40
2022-09-04T13:41:53.767Z,-40